Callisburg, Texas
Current Conditions -  °F | °C
As of 2:55 AM on Friday 24 Oct 2014 (Local Time) from KGLE Reporting Station
Clear Clear  
Wind Chill: 58°   Ceiling: Unl
Heat Index: 58°   Visibility: 10mi
Dew Point: 55°   Wind: 5mph
Humidity: 89%   Direction: 160°SSE
Pressure: 30.13"   Gusts: NA
Location:  33.7001°N, 97.0805°W
Report Text: KGLE 240755Z AUTO 16004KT 10SM CLR 15/13 A3013 RMK AO2 T01450127
Loading
Personal Weather Stations






























Interactive Weather Map
Tropical Storm Tracking
New forecast layout! Learn more

10-Day Weather Forecast

Advertisements
Track Severe Weather on mobile